sensor_id;sensor_type;location;lat;lon;timestamp;temperature;humidity
480;DHT22;226;48.606;9.096;2023-07-29T00:02:16;17.60;99.90
480;DHT22;226;48.606;9.096;2023-07-29T00:04:44;17.40;99.90
480;DHT22;226;48.606;9.096;2023-07-29T00:07:12;17.60;99.90
480;DHT22;226;48.606;9.096;2023-07-29T00:09:41;17.40;99.90
480;DHT22;226;48.606;9.096;2023-07-29T00:12:09;17.30;99.90
480;DHT22;226;48.606;9.096;2023-07-29T00:14:37;17.50;99.90
480;DHT22;226;48.606;9.096;2023-07-29T00:17:05;17.20;99.90
480;DHT22;226;48.606;9.096;2023-07-29T00:19:34;17.20;99.90
480;DHT22;226;48.606;9.096;2023-07-29T00:22:03;17.50;99.90
480;DHT22;226;48.606;9.096;2023-07-29T00:24:32;17.10;99.90
480;DHT22;226;48.606;9.096;2023-07-29T00:27:00;17.20;99.90
480;DHT22;226;48.606;9.096;2023-07-29T00:29:28;17.40;99.90
480;DHT22;226;48.606;9.096;2023-07-29T00:31:56;17.20;99.90
480;DHT22;226;48.606;9.096;2023-07-29T00:34:24;17.40;99.90
480;DHT22;226;48.606;9.096;2023-07-29T00:36:53;17.30;99.90
480;DHT22;226;48.606;9.096;2023-07-29T00:39:22;17.60;99.90
480;DHT22;226;48.606;9.096;2023-07-29T00:41:50;17.40;99.90
480;DHT22;226;48.606;9.096;2023-07-29T00:44:18;17.50;99.90
480;DHT22;226;48.606;9.096;2023-07-29T00:46:47;17.50;99.90
480;DHT22;226;48.606;9.096;2023-07-29T00:49:17;17.40;99.90
480;DHT22;226;48.606;9.096;2023-07-29T00:51:46;17.00;99.90
480;DHT22;226;48.606;9.096;2023-07-29T00:54:15;17.50;99.90
480;DHT22;226;48.606;9.096;2023-07-29T00:56:43;17.50;99.90
480;DHT22;226;48.606;9.096;2023-07-29T00:59:12;17.70;99.90
480;DHT22;226;48.606;9.096;2023-07-29T01:01:40;16.70;99.90
480;DHT22;226;48.606;9.096;2023-07-29T01:04:09;17.50;99.90
480;DHT22;226;48.606;9.096;2023-07-29T01:06:41;17.50;99.90
480;DHT22;226;48.606;9.096;2023-07-29T01:09:23;17.10;99.90
480;DHT22;226;48.606;9.096;2023-07-29T01:12:01;17.40;99.90
480;DHT22;226;48.606;9.096;2023-07-29T01:14:36;17.50;99.90
480;DHT22;226;48.606;9.096;2023-07-29T01:17:09;17.70;99.90
480;DHT22;226;48.606;9.096;2023-07-29T01:19:48;17.40;99.90
480;DHT22;226;48.606;9.096;2023-07-29T01:22:22;17.70;99.90
480;DHT22;226;48.606;9.096;2023-07-29T01:24:53;17.50;99.90
480;DHT22;226;48.606;9.096;2023-07-29T01:27:21;17.50;99.90
480;DHT22;226;48.606;9.096;2023-07-29T01:29:49;17.40;99.90
480;DHT22;226;48.606;9.096;2023-07-29T01:32:21;17.50;99.90
480;DHT22;226;48.606;9.096;2023-07-29T01:34:54;17.30;99.90
480;DHT22;226;48.606;9.096;2023-07-29T01:37:27;17.50;99.90
480;DHT22;226;48.606;9.096;2023-07-29T01:40:00;17.40;99.90
480;DHT22;226;48.606;9.096;2023-07-29T01:42:29;17.20;99.90
480;DHT22;226;48.606;9.096;2023-07-29T01:44:58;17.30;99.90
480;DHT22;226;48.606;9.096;2023-07-29T01:47:27;17.50;99.90
480;DHT22;226;48.606;9.096;2023-07-29T01:49:55;17.40;99.90
480;DHT22;226;48.606;9.096;2023-07-29T01:52:23;17.20;99.90
480;DHT22;226;48.606;9.096;2023-07-29T01:54:51;17.20;99.90
480;DHT22;226;48.606;9.096;2023-07-29T01:57:21;17.50;99.90
480;DHT22;226;48.606;9.096;2023-07-29T01:59:49;17.40;99.90
480;DHT22;226;48.606;9.096;2023-07-29T02:02:17;17.40;99.90
480;DHT22;226;48.606;9.096;2023-07-29T02:04:45;17.20;99.90
480;DHT22;226;48.606;9.096;2023-07-29T02:07:18;17.40;99.90
480;DHT22;226;48.606;9.096;2023-07-29T02:09:46;17.50;99.90
480;DHT22;226;48.606;9.096;2023-07-29T02:12:14;17.50;99.90
480;DHT22;226;48.606;9.096;2023-07-29T02:14:44;17.30;99.90
480;DHT22;226;48.606;9.096;2023-07-29T02:17:12;17.30;99.90
480;DHT22;226;48.606;9.096;2023-07-29T02:19:40;17.20;99.90
480;DHT22;226;48.606;9.096;2023-07-29T02:24:37;17.30;99.90
480;DHT22;226;48.606;9.096;2023-07-29T02:27:05;17.40;99.90
480;DHT22;226;48.606;9.096;2023-07-29T02:29:33;17.20;99.90
480;DHT22;226;48.606;9.096;2023-07-29T02:32:03;16.70;99.90
480;DHT22;226;48.606;9.096;2023-07-29T02:34:31;17.50;99.90
480;DHT22;226;48.606;9.096;2023-07-29T02:36:59;17.30;99.90
480;DHT22;226;48.606;9.096;2023-07-29T02:39:27;17.40;99.90
480;DHT22;226;48.606;9.096;2023-07-29T02:41:56;17.20;99.90
480;DHT22;226;48.606;9.096;2023-07-29T02:44:25;17.10;99.90
480;DHT22;226;48.606;9.096;2023-07-29T02:46:53;17.10;99.90
480;DHT22;226;48.606;9.096;2023-07-29T02:49:24;17.20;99.90
480;DHT22;226;48.606;9.096;2023-07-29T02:51:52;17.30;99.90
480;DHT22;226;48.606;9.096;2023-07-29T02:54:20;17.10;99.90
480;DHT22;226;48.606;9.096;2023-07-29T02:56:49;17.20;99.90
480;DHT22;226;48.606;9.096;2023-07-29T02:59:18;17.30;99.90
480;DHT22;226;48.606;9.096;2023-07-29T03:01:46;16.80;99.90
480;DHT22;226;48.606;9.096;2023-07-29T03:04:16;17.10;99.90
480;DHT22;226;48.606;9.096;2023-07-29T03:06:46;17.10;99.90
480;DHT22;226;48.606;9.096;2023-07-29T03:09:15;17.10;99.90
480;DHT22;226;48.606;9.096;2023-07-29T03:11:43;17.10;99.90
480;DHT22;226;48.606;9.096;2023-07-29T03:14:11;17.10;99.90
480;DHT22;226;48.606;9.096;2023-07-29T03:16:39;17.20;99.90
480;DHT22;226;48.606;9.096;2023-07-29T03:19:07;17.20;99.90
480;DHT22;226;48.606;9.096;2023-07-29T03:21:35;17.20;99.90
480;DHT22;226;48.606;9.096;2023-07-29T03:24:05;17.30;99.90
480;DHT22;226;48.606;9.096;2023-07-29T03:26:34;17.50;99.90
480;DHT22;226;48.606;9.096;2023-07-29T03:29:02;17.30;99.90
480;DHT22;226;48.606;9.096;2023-07-29T03:31:30;17.20;99.90
480;DHT22;226;48.606;9.096;2023-07-29T03:33:58;17.20;99.90
480;DHT22;226;48.606;9.096;2023-07-29T03:36:27;17.30;99.90
480;DHT22;226;48.606;9.096;2023-07-29T03:38:55;17.30;99.90
480;DHT22;226;48.606;9.096;2023-07-29T03:41:24;17.30;99.90
480;DHT22;226;48.606;9.096;2023-07-29T03:43:53;17.30;99.90
480;DHT22;226;48.606;9.096;2023-07-29T03:46:21;17.20;99.90
480;DHT22;226;48.606;9.096;2023-07-29T03:48:49;17.20;99.90
480;DHT22;226;48.606;9.096;2023-07-29T03:51:17;17.30;99.90
480;DHT22;226;48.606;9.096;2023-07-29T03:53:45;17.60;99.90
480;DHT22;226;48.606;9.096;2023-07-29T03:56:13;17.30;99.90
480;DHT22;226;48.606;9.096;2023-07-29T03:58:45;17.30;99.90
480;DHT22;226;48.606;9.096;2023-07-29T04:01:13;17.50;99.90
480;DHT22;226;48.606;9.096;2023-07-29T04:03:42;17.00;99.90
480;DHT22;226;48.606;9.096;2023-07-29T04:06:10;17.70;99.90
480;DHT22;226;48.606;9.096;2023-07-29T04:08:38;17.60;99.90
480;DHT22;226;48.606;9.096;2023-07-29T04:11:06;17.70;99.90
480;DHT22;226;48.606;9.096;2023-07-29T04:13:34;17.60;99.90
480;DHT22;226;48.606;9.096;2023-07-29T04:16:06;17.70;99.90
480;DHT22;226;48.606;9.096;2023-07-29T04:18:35;17.90;99.90
480;DHT22;226;48.606;9.096;2023-07-29T04:21:03;17.70;99.90
480;DHT22;226;48.606;9.096;2023-07-29T04:23:31;17.90;99.90
480;DHT22;226;48.606;9.096;2023-07-29T04:25:59;17.80;99.90
480;DHT22;226;48.606;9.096;2023-07-29T04:28:27;17.70;99.90
480;DHT22;226;48.606;9.096;2023-07-29T04:30:56;17.80;99.90
480;DHT22;226;48.606;9.096;2023-07-29T04:33:25;17.90;99.90
480;DHT22;226;48.606;9.096;2023-07-29T04:35:53;17.90;99.90
480;DHT22;226;48.606;9.096;2023-07-29T04:38:21;17.90;99.90
480;DHT22;226;48.606;9.096;2023-07-29T04:40:50;17.90;99.90
480;DHT22;226;48.606;9.096;2023-07-29T04:43:18;17.90;99.90
480;DHT22;226;48.606;9.096;2023-07-29T04:45:46;18.20;99.90
480;DHT22;226;48.606;9.096;2023-07-29T04:48:15;18.00;99.90
480;DHT22;226;48.606;9.096;2023-07-29T04:50:46;18.00;99.90
480;DHT22;226;48.606;9.096;2023-07-29T04:53:14;17.90;99.90
480;DHT22;226;48.606;9.096;2023-07-29T04:55:42;18.00;99.90
480;DHT22;226;48.606;9.096;2023-07-29T04:58:11;18.00;99.90
480;DHT22;226;48.606;9.096;2023-07-29T05:00:39;18.10;99.90
480;DHT22;226;48.606;9.096;2023-07-29T05:03:07;18.00;99.90
480;DHT22;226;48.606;9.096;2023-07-29T05:05:35;18.10;99.90
480;DHT22;226;48.606;9.096;2023-07-29T05:08:05;17.90;99.90
480;DHT22;226;48.606;9.096;2023-07-29T05:10:34;17.80;99.90
480;DHT22;226;48.606;9.096;2023-07-29T05:13:02;17.90;99.90
480;DHT22;226;48.606;9.096;2023-07-29T05:15:30;17.50;99.90
480;DHT22;226;48.606;9.096;2023-07-29T05:17:59;17.70;99.90
480;DHT22;226;48.606;9.096;2023-07-29T05:20:27;17.60;99.90
480;DHT22;226;48.606;9.096;2023-07-29T05:22:55;17.70;99.90
480;DHT22;226;48.606;9.096;2023-07-29T05:25:24;17.70;99.90
480;DHT22;226;48.606;9.096;2023-07-29T05:27:53;17.80;99.90
480;DHT22;226;48.606;9.096;2023-07-29T05:30:21;17.80;99.90
480;DHT22;226;48.606;9.096;2023-07-29T05:32:49;17.80;99.90
480;DHT22;226;48.606;9.096;2023-07-29T05:35:17;18.10;99.90
480;DHT22;226;48.606;9.096;2023-07-29T05:37:45;18.20;99.90
480;DHT22;226;48.606;9.096;2023-07-29T05:40:13;18.10;99.90
480;DHT22;226;48.606;9.096;2023-07-29T05:42:43;18.20;99.90
480;DHT22;226;48.606;9.096;2023-07-29T05:45:11;18.40;99.90
480;DHT22;226;48.606;9.096;2023-07-29T05:47:41;18.50;99.90
480;DHT22;226;48.606;9.096;2023-07-29T05:50:09;18.50;99.90
480;DHT22;226;48.606;9.096;2023-07-29T05:52:37;18.50;99.90
480;DHT22;226;48.606;9.096;2023-07-29T05:55:06;18.40;99.90
480;DHT22;226;48.606;9.096;2023-07-29T05:57:34;18.40;99.90
480;DHT22;226;48.606;9.096;2023-07-29T06:00:05;18.50;99.90
480;DHT22;226;48.606;9.096;2023-07-29T06:02:33;18.80;99.90
480;DHT22;226;48.606;9.096;2023-07-29T06:05:01;18.60;99.90
480;DHT22;226;48.606;9.096;2023-07-29T06:07:30;18.60;99.90
480;DHT22;226;48.606;9.096;2023-07-29T06:10:00;18.10;99.90
480;DHT22;226;48.606;9.096;2023-07-29T06:12:28;19.20;99.90
480;DHT22;226;48.606;9.096;2023-07-29T06:14:56;19.20;99.90
480;DHT22;226;48.606;9.096;2023-07-29T06:17:26;19.30;99.90
480;DHT22;226;48.606;9.096;2023-07-29T06:19:54;19.30;99.90
480;DHT22;226;48.606;9.096;2023-07-29T06:22:22;19.50;99.90
480;DHT22;226;48.606;9.096;2023-07-29T06:24:50;19.50;99.90
480;DHT22;226;48.606;9.096;2023-07-29T06:27:18;19.70;99.90
480;DHT22;226;48.606;9.096;2023-07-29T06:29:46;19.80;99.90
480;DHT22;226;48.606;9.096;2023-07-29T06:32:14;20.00;99.90
480;DHT22;226;48.606;9.096;2023-07-29T06:34:44;20.10;99.90
480;DHT22;226;48.606;9.096;2023-07-29T06:37:12;20.30;99.90
480;DHT22;226;48.606;9.096;2023-07-29T06:39:40;20.20;99.90
480;DHT22;226;48.606;9.096;2023-07-29T06:42:08;20.20;99.90
480;DHT22;226;48.606;9.096;2023-07-29T06:44:36;20.00;99.90
480;DHT22;226;48.606;9.096;2023-07-29T06:47:05;20.20;99.90
480;DHT22;226;48.606;9.096;2023-07-29T06:49:33;19.90;99.90
480;DHT22;226;48.606;9.096;2023-07-29T06:52:03;20.00;99.90
480;DHT22;226;48.606;9.096;2023-07-29T06:54:31;19.50;99.90
480;DHT22;226;48.606;9.096;2023-07-29T06:56:59;19.20;99.90
480;DHT22;226;48.606;9.096;2023-07-29T06:59:27;18.90;99.90
480;DHT22;226;48.606;9.096;2023-07-29T07:02:14;18.50;99.90
480;DHT22;226;48.606;9.096;2023-07-29T07:05:03;18.20;99.90
480;DHT22;226;48.606;9.096;2023-07-29T07:07:52;18.00;99.90
480;DHT22;226;48.606;9.096;2023-07-29T07:10:41;17.90;99.90
480;DHT22;226;48.606;9.096;2023-07-29T07:13:29;17.70;99.90
480;DHT22;226;48.606;9.096;2023-07-29T07:18:47;17.70;99.90
480;DHT22;226;48.606;9.096;2023-07-29T07:21:15;17.80;99.90
480;DHT22;226;48.606;9.096;2023-07-29T07:23:44;17.90;99.90
480;DHT22;226;48.606;9.096;2023-07-29T07:26:12;18.20;99.90
480;DHT22;226;48.606;9.096;2023-07-29T07:28:40;18.00;99.90
480;DHT22;226;48.606;9.096;2023-07-29T07:31:08;18.10;99.90
480;DHT22;226;48.606;9.096;2023-07-29T07:36:05;18.30;99.90
480;DHT22;226;48.606;9.096;2023-07-29T07:38:33;18.30;99.90
480;DHT22;226;48.606;9.096;2023-07-29T07:41:02;18.60;99.90
480;DHT22;226;48.606;9.096;2023-07-29T07:43:30;18.70;99.90
480;DHT22;226;48.606;9.096;2023-07-29T07:45:59;18.80;99.90
480;DHT22;226;48.606;9.096;2023-07-29T07:48:28;18.80;99.90
480;DHT22;226;48.606;9.096;2023-07-29T07:50:56;18.80;99.90
480;DHT22;226;48.606;9.096;2023-07-29T07:53:24;19.00;99.90
480;DHT22;226;48.606;9.096;2023-07-29T07:55:53;19.10;99.90
480;DHT22;226;48.606;9.096;2023-07-29T08:00:51;19.10;99.90
480;DHT22;226;48.606;9.096;2023-07-29T08:03:19;19.50;99.90
480;DHT22;226;48.606;9.096;2023-07-29T08:05:47;19.30;99.90
480;DHT22;226;48.606;9.096;2023-07-29T08:08:16;19.40;99.90
480;DHT22;226;48.606;9.096;2023-07-29T08:10:45;20.00;99.90
480;DHT22;226;48.606;9.096;2023-07-29T08:13:13;19.70;99.90
480;DHT22;226;48.606;9.096;2023-07-29T08:15:46;19.90;99.90
480;DHT22;226;48.606;9.096;2023-07-29T08:18:14;19.80;99.90
480;DHT22;226;48.606;9.096;2023-07-29T08:20:51;19.70;99.90
480;DHT22;226;48.606;9.096;2023-07-29T08:23:19;19.90;99.90
480;DHT22;226;48.606;9.096;2023-07-29T08:25:52;19.80;99.90
480;DHT22;226;48.606;9.096;2023-07-29T08:30:50;19.90;99.90
480;DHT22;226;48.606;9.096;2023-07-29T08:33:18;19.90;99.90
480;DHT22;226;48.606;9.096;2023-07-29T08:35:47;19.90;99.90
480;DHT22;226;48.606;9.096;2023-07-29T08:40:47;20.30;99.90
480;DHT22;226;48.606;9.096;2023-07-29T08:43:19;20.50;99.90
480;DHT22;226;48.606;9.096;2023-07-29T08:45:49;20.50;99.90
480;DHT22;226;48.606;9.096;2023-07-29T08:48:27;20.50;99.90
480;DHT22;226;48.606;9.096;2023-07-29T08:50:58;20.60;99.90
480;DHT22;226;48.606;9.096;2023-07-29T08:53:27;20.60;99.90
480;DHT22;226;48.606;9.096;2023-07-29T08:55:56;20.70;99.90
480;DHT22;226;48.606;9.096;2023-07-29T08:58:25;21.30;99.90
480;DHT22;226;48.606;9.096;2023-07-29T09:00:55;21.00;99.90
480;DHT22;226;48.606;9.096;2023-07-29T09:03:24;20.90;99.90
480;DHT22;226;48.606;9.096;2023-07-29T09:05:53;21.00;99.90
480;DHT22;226;48.606;9.096;2023-07-29T09:08:23;21.20;99.90
480;DHT22;226;48.606;9.096;2023-07-29T09:15:56;21.50;99.90
480;DHT22;226;48.606;9.096;2023-07-29T09:18:27;21.50;99.90
480;DHT22;226;48.606;9.096;2023-07-29T09:23:27;21.70;99.90
480;DHT22;226;48.606;9.096;2023-07-29T09:26:03;21.80;99.90
480;DHT22;226;48.606;9.096;2023-07-29T09:28:34;21.90;99.90
480;DHT22;226;48.606;9.096;2023-07-29T09:31:04;21.90;99.90
480;DHT22;226;48.606;9.096;2023-07-29T09:33:34;22.20;99.90
480;DHT22;226;48.606;9.096;2023-07-29T09:36:08;22.30;99.90
480;DHT22;226;48.606;9.096;2023-07-29T09:38:37;22.30;99.90
480;DHT22;226;48.606;9.096;2023-07-29T09:41:06;22.40;99.90
480;DHT22;226;48.606;9.096;2023-07-29T09:43:35;22.10;99.80
480;DHT22;226;48.606;9.096;2023-07-29T09:46:05;22.20;99.90
480;DHT22;226;48.606;9.096;2023-07-29T09:48:35;22.00;99.90
480;DHT22;226;48.606;9.096;2023-07-29T09:51:13;22.10;99.90
480;DHT22;226;48.606;9.096;2023-07-29T09:53:42;22.30;99.90
480;DHT22;226;48.606;9.096;2023-07-29T09:56:14;22.20;99.90
480;DHT22;226;48.606;9.096;2023-07-29T09:58:44;22.40;99.90
480;DHT22;226;48.606;9.096;2023-07-29T10:01:14;22.30;99.90
480;DHT22;226;48.606;9.096;2023-07-29T10:03:43;22.40;99.50
480;DHT22;226;48.606;9.096;2023-07-29T10:06:12;22.80;99.90
480;DHT22;226;48.606;9.096;2023-07-29T10:08:42;22.40;98.30
480;DHT22;226;48.606;9.096;2023-07-29T10:57:13;23.40;77.40
480;DHT22;226;48.606;9.096;2023-07-29T11:07:28;23.50;71.60
480;DHT22;226;48.606;9.096;2023-07-29T11:10:01;23.70;74.70
480;DHT22;226;48.606;9.096;2023-07-29T11:17:44;24.10;69.40
480;DHT22;226;48.606;9.096;2023-07-29T11:20:13;24.20;65.00
480;DHT22;226;48.606;9.096;2023-07-29T13:03:05;25.90;52.80
480;DHT22;226;48.606;9.096;2023-07-29T13:15:30;26.20;46.60
480;DHT22;226;48.606;9.096;2023-07-29T14:33:13;27.60;24.90
480;DHT22;226;48.606;9.096;2023-07-29T14:40:47;29.70;39.60
480;DHT22;226;48.606;9.096;2023-07-29T14:43:16;29.50;28.00
480;DHT22;226;48.606;9.096;2023-07-29T14:45:45;29.50;26.50
480;DHT22;226;48.606;9.096;2023-07-29T15:40:53;26.80;48.80
480;DHT22;226;48.606;9.096;2023-07-29T15:55:51;30.80;32.30
480;DHT22;226;48.606;9.096;2023-07-29T17:42:05;21.10;93.00
480;DHT22;226;48.606;9.096;2023-07-29T17:44:34;21.00;97.30
480;DHT22;226;48.606;9.096;2023-07-29T17:47:04;21.40;98.90
480;DHT22;226;48.606;9.096;2023-07-29T17:49:33;20.90;98.10
480;DHT22;226;48.606;9.096;2023-07-29T17:52:01;21.00;99.00
480;DHT22;226;48.606;9.096;2023-07-29T17:54:30;20.80;99.50
480;DHT22;226;48.606;9.096;2023-07-29T17:56:58;21.00;99.90
480;DHT22;226;48.606;9.096;2023-07-29T17:59:26;21.10;99.90
480;DHT22;226;48.606;9.096;2023-07-29T18:01:55;20.70;99.90
480;DHT22;226;48.606;9.096;2023-07-29T18:04:25;20.70;99.90
480;DHT22;226;48.606;9.096;2023-07-29T18:06:53;20.80;98.70
480;DHT22;226;48.606;9.096;2023-07-29T18:09:24;20.60;99.70
480;DHT22;226;48.606;9.096;2023-07-29T18:14:22;20.70;99.90
480;DHT22;226;48.606;9.096;2023-07-29T18:16:50;20.70;99.90
480;DHT22;226;48.606;9.096;2023-07-29T18:19:19;20.80;99.90
480;DHT22;226;48.606;9.096;2023-07-29T18:21:49;21.00;99.90
480;DHT22;226;48.606;9.096;2023-07-29T18:24:18;21.00;99.90
480;DHT22;226;48.606;9.096;2023-07-29T18:26:46;21.00;99.90
480;DHT22;226;48.606;9.096;2023-07-29T18:29:14;20.90;99.90
480;DHT22;226;48.606;9.096;2023-07-29T18:31:44;21.10;99.90
480;DHT22;226;48.606;9.096;2023-07-29T18:34:12;21.10;99.90
480;DHT22;226;48.606;9.096;2023-07-29T18:36:40;21.00;99.90
480;DHT22;226;48.606;9.096;2023-07-29T18:39:13;20.90;99.90
480;DHT22;226;48.606;9.096;2023-07-29T18:41:42;21.10;99.90
480;DHT22;226;48.606;9.096;2023-07-29T18:44:10;21.00;99.90
480;DHT22;226;48.606;9.096;2023-07-29T18:46:38;20.80;99.90
480;DHT22;226;48.606;9.096;2023-07-29T18:49:07;20.90;99.90
480;DHT22;226;48.606;9.096;2023-07-29T18:51:35;20.80;99.90
480;DHT22;226;48.606;9.096;2023-07-29T18:54:04;20.70;99.90
480;DHT22;226;48.606;9.096;2023-07-29T18:56:33;20.70;99.90
480;DHT22;226;48.606;9.096;2023-07-29T18:59:02;20.90;99.90
480;DHT22;226;48.606;9.096;2023-07-29T19:01:31;20.80;99.90
480;DHT22;226;48.606;9.096;2023-07-29T19:03:59;20.50;99.90
480;DHT22;226;48.606;9.096;2023-07-29T19:06:28;20.40;99.90
480;DHT22;226;48.606;9.096;2023-07-29T19:08:56;20.40;99.90
480;DHT22;226;48.606;9.096;2023-07-29T19:11:24;20.30;99.90
480;DHT22;226;48.606;9.096;2023-07-29T19:13:54;20.40;99.90
480;DHT22;226;48.606;9.096;2023-07-29T19:16:22;20.50;99.90
480;DHT22;226;48.606;9.096;2023-07-29T19:18:51;20.70;99.90
480;DHT22;226;48.606;9.096;2023-07-29T19:21:19;20.30;99.90
480;DHT22;226;48.606;9.096;2023-07-29T19:23:48;20.30;99.90
480;DHT22;226;48.606;9.096;2023-07-29T19:26:16;20.40;99.90
480;DHT22;226;48.606;9.096;2023-07-29T19:28:48;20.40;99.90
480;DHT22;226;48.606;9.096;2023-07-29T19:31:19;20.30;99.90
480;DHT22;226;48.606;9.096;2023-07-29T19:33:47;20.30;99.90
480;DHT22;226;48.606;9.096;2023-07-29T19:36:15;20.10;99.90
480;DHT22;226;48.606;9.096;2023-07-29T19:38:44;20.10;99.90
480;DHT22;226;48.606;9.096;2023-07-29T19:43:40;20.10;99.90
480;DHT22;226;48.606;9.096;2023-07-29T19:46:12;20.10;99.90
480;DHT22;226;48.606;9.096;2023-07-29T19:49:01;20.10;99.90
480;DHT22;226;48.606;9.096;2023-07-29T19:51:29;19.90;99.90
480;DHT22;226;48.606;9.096;2023-07-29T19:53:58;19.60;99.90
480;DHT22;226;48.606;9.096;2023-07-29T19:56:26;20.30;99.90
480;DHT22;226;48.606;9.096;2023-07-29T19:58:54;20.10;99.90
480;DHT22;226;48.606;9.096;2023-07-29T20:01:23;20.10;99.90
480;DHT22;226;48.606;9.096;2023-07-29T20:06:22;19.90;99.90
480;DHT22;226;48.606;9.096;2023-07-29T20:08:50;20.00;99.90
480;DHT22;226;48.606;9.096;2023-07-29T20:11:21;20.10;99.90
480;DHT22;226;48.606;9.096;2023-07-29T20:13:49;19.80;99.90
480;DHT22;226;48.606;9.096;2023-07-29T20:16:18;20.10;99.90
480;DHT22;226;48.606;9.096;2023-07-29T20:18:46;20.20;99.90
480;DHT22;226;48.606;9.096;2023-07-29T20:21:14;20.10;99.90
480;DHT22;226;48.606;9.096;2023-07-29T20:23:44;19.90;99.90
480;DHT22;226;48.606;9.096;2023-07-29T20:26:15;19.80;99.90
480;DHT22;226;48.606;9.096;2023-07-29T20:28:43;20.00;99.90
480;DHT22;226;48.606;9.096;2023-07-29T20:31:13;19.90;99.90
480;DHT22;226;48.606;9.096;2023-07-29T20:33:41;19.60;99.90
480;DHT22;226;48.606;9.096;2023-07-29T20:36:09;20.00;99.90
480;DHT22;226;48.606;9.096;2023-07-29T20:38:37;19.60;99.90
480;DHT22;226;48.606;9.096;2023-07-29T20:41:08;19.80;99.90
480;DHT22;226;48.606;9.096;2023-07-29T20:43:36;19.80;99.90
480;DHT22;226;48.606;9.096;2023-07-29T20:46:17;19.60;99.90
480;DHT22;226;48.606;9.096;2023-07-29T20:48:45;19.70;99.90
480;DHT22;226;48.606;9.096;2023-07-29T20:51:15;19.60;99.90
480;DHT22;226;48.606;9.096;2023-07-29T20:53:45;19.70;99.90
480;DHT22;226;48.606;9.096;2023-07-29T20:56:15;19.50;99.90
480;DHT22;226;48.606;9.096;2023-07-29T20:58:44;19.40;99.90
480;DHT22;226;48.606;9.096;2023-07-29T21:01:14;19.40;99.90
480;DHT22;226;48.606;9.096;2023-07-29T21:03:43;19.40;99.90
480;DHT22;226;48.606;9.096;2023-07-29T21:06:11;19.20;99.90
480;DHT22;226;48.606;9.096;2023-07-29T21:08:39;19.30;99.90
480;DHT22;226;48.606;9.096;2023-07-29T21:11:08;19.20;99.90
480;DHT22;226;48.606;9.096;2023-07-29T21:13:38;19.30;99.90
480;DHT22;226;48.606;9.096;2023-07-29T21:16:06;19.20;99.90
480;DHT22;226;48.606;9.096;2023-07-29T21:18:34;19.20;99.90
480;DHT22;226;48.606;9.096;2023-07-29T21:21:03;19.30;99.90
480;DHT22;226;48.606;9.096;2023-07-29T21:23:31;19.20;99.90
480;DHT22;226;48.606;9.096;2023-07-29T21:25:59;19.70;99.90
480;DHT22;226;48.606;9.096;2023-07-29T21:28:28;19.00;99.90
480;DHT22;226;48.606;9.096;2023-07-29T21:30:58;19.40;99.90
